CSN0117 RJFF-RKSI
Flight info
| Callsign | CSN0117 |
|---|---|
| Flight time | 0h 54m |
| Altitude | 34000 |
| Route | DGC G339 BEETL Y208 INVOK Z91 PSN Y782 BITUX Z53 BASEM Y685 GUKDO |
| Aircraft | A320/M-SDE2E3FGHIJ1RWXY/LB1 |
Departure
| Time | 2026-05-07 14:33 |
|---|---|
| Airport | Fukuoka Airport (RJFF) |
Arrival
| Time | 2026-05-07 15:28 |
|---|---|
| Airport | Incheon International Airport (RKSI) |
| Time | Latitude | Longitude | Altitude | Speed | Heading |
|---|---|---|---|---|---|
| 2026-05-07 13:52 | 33.58817 | 130.45248 | 32 ft | 0 kts | 59° |
| 2026-05-07 13:57 | 33.58566 | 130.44507 | 27 ft | 0 kts | 241° |
| 2026-05-07 14:08 | 33.58568 | 130.44513 | 27 ft | 2 kts | 241° |
| 2026-05-07 14:08 | 33.58574 | 130.44525 | 27 ft | 2 kts | 241° |
| 2026-05-07 14:09 | 33.58582 | 130.44543 | 27 ft | 3 kts | 241° |
| 2026-05-07 14:09 | 33.58592 | 130.44567 | 29 ft | 4 kts | 261° |
| 2026-05-07 14:09 | 33.58605 | 130.44603 | 30 ft | 5 kts | 198° |
| 2026-05-07 14:09 | 33.58639 | 130.44598 | 30 ft | 4 kts | 150° |
| 2026-05-07 14:11 | 33.58636 | 130.44600 | 30 ft | 4 kts | 150° |
| 2026-05-07 14:11 | 33.58561 | 130.44651 | 32 ft | 18 kts | 150° |
| 2026-05-07 14:12 | 33.58439 | 130.44720 | 32 ft | 21 kts | 149° |
| 2026-05-07 14:12 | 33.58376 | 130.44770 | 33 ft | 3 kts | 133° |
| 2026-05-07 14:12 | 33.58390 | 130.44805 | 33 ft | 12 kts | 63° |
| 2026-05-07 14:12 | 33.58420 | 130.44949 | 32 ft | 19 kts | 127° |
| 2026-05-07 14:13 | 33.58307 | 130.45035 | 34 ft | 18 kts | 149° |
| 2026-05-07 14:13 | 33.58186 | 130.45123 | 35 ft | 22 kts | 148° |
| 2026-05-07 14:13 | 33.58060 | 130.45202 | 36 ft | 0 kts | 146° |
| 2026-05-07 14:13 | 33.58058 | 130.45203 | 36 ft | 1 kts | 146° |
| 2026-05-07 14:14 | 33.58050 | 130.45197 | 35 ft | 4 kts | 217° |
| 2026-05-07 14:14 | 33.58003 | 130.45148 | 36 ft | 12 kts | 202° |
| 2026-05-07 14:14 | 33.57949 | 130.45178 | 37 ft | 8 kts | 153° |
| 2026-05-07 14:14 | 33.57898 | 130.45209 | 37 ft | 8 kts | 153° |
| 2026-05-07 14:15 | 33.57824 | 130.45257 | 36 ft | 17 kts | 148° |
| 2026-05-07 14:15 | 33.57705 | 130.45324 | 39 ft | 20 kts | 163° |
| 2026-05-07 14:15 | 33.57573 | 130.45409 | 40 ft | 24 kts | 146° |
| 2026-05-07 14:15 | 33.57466 | 130.45498 | 40 ft | 11 kts | 147° |
| 2026-05-07 14:16 | 33.57429 | 130.45529 | 40 ft | 0 kts | 127° |
| 2026-05-07 14:16 | 33.57439 | 130.45565 | 41 ft | 2 kts | 56° |
| 2026-05-07 14:16 | 33.57445 | 130.45598 | 41 ft | 15 kts | 89° |
| 2026-05-07 14:16 | 33.57464 | 130.45723 | 40 ft | 0 kts | 60° |
| 2026-05-07 14:32 | 33.57465 | 130.45726 | 40 ft | 3 kts | 60° |
| 2026-05-07 14:32 | 33.57533 | 130.45782 | 42 ft | 19 kts | 358° |
| 2026-05-07 14:32 | 33.57615 | 130.45733 | 42 ft | 0 kts | 329° |
| 2026-05-07 14:32 | 33.57618 | 130.45732 | 42 ft | 0 kts | 330° |
| 2026-05-07 14:33 | 33.57646 | 130.45712 | 42 ft | 24 kts | 330° |
| 2026-05-07 14:33 | 33.58187 | 130.45343 | 37 ft | 149 kts | 330° |
| 2026-05-07 14:33 | 33.59237 | 130.44626 | 570 ft | 182 kts | 329° |
| 2026-05-07 14:33 | 33.60400 | 130.43829 | 1202 ft | 208 kts | 330° |
| 2026-05-07 14:34 | 33.61771 | 130.42901 | 1840 ft | 239 kts | 330° |
| 2026-05-07 14:34 | 33.63211 | 130.41932 | 2694 ft | 246 kts | 330° |
| 2026-05-07 14:34 | 33.64828 | 130.40844 | 3345 ft | 288 kts | 330° |
| 2026-05-07 14:34 | 33.66692 | 130.39588 | 3983 ft | 326 kts | 330° |
| 2026-05-07 14:35 | 33.68622 | 130.38035 | 4609 ft | 325 kts | 321° |
| 2026-05-07 14:35 | 33.70311 | 130.36428 | 5221 ft | 295 kts | 321° |
| 2026-05-07 14:35 | 33.71842 | 130.34974 | 5844 ft | 271 kts | 321° |
| 2026-05-07 14:35 | 33.73324 | 130.33570 | 6472 ft | 272 kts | 321° |
| 2026-05-07 14:36 | 33.74819 | 130.32153 | 7102 ft | 275 kts | 321° |
| 2026-05-07 14:36 | 33.76326 | 130.30722 | 7732 ft | 277 kts | 321° |
| 2026-05-07 14:36 | 33.77847 | 130.29278 | 8361 ft | 280 kts | 321° |
| 2026-05-07 14:36 | 33.79359 | 130.27840 | 8983 ft | 283 kts | 321° |
| 2026-05-07 14:37 | 33.80909 | 130.26365 | 9608 ft | 285 kts | 321° |
| 2026-05-07 14:37 | 33.84147 | 130.23279 | 10086 ft | 296 kts | 321° |
| 2026-05-07 14:37 | 33.85821 | 130.21681 | 10230 ft | 307 kts | 321° |
| 2026-05-07 14:38 | 33.87400 | 130.20177 | 10931 ft | 272 kts | 321° |
| 2026-05-07 14:38 | 33.88776 | 130.18865 | 12194 ft | 233 kts | 321° |
| 2026-05-07 14:38 | 33.89986 | 130.17710 | 13723 ft | 217 kts | 321° |
| 2026-05-07 14:38 | 33.91166 | 130.16582 | 15096 ft | 218 kts | 321° |
| 2026-05-07 14:39 | 33.92365 | 130.15435 | 16226 ft | 222 kts | 321° |
| 2026-05-07 14:39 | 33.93572 | 130.14280 | 17250 ft | 228 kts | 321° |
| 2026-05-07 14:39 | 33.94889 | 130.13022 | 17788 ft | 260 kts | 321° |
| 2026-05-07 14:39 | 33.96408 | 130.11572 | 17961 ft | 295 kts | 321° |
| 2026-05-07 14:40 | 33.98097 | 130.09958 | 18002 ft | 325 kts | 321° |
| 2026-05-07 14:40 | 33.99949 | 130.08187 | 18001 ft | 355 kts | 321° |
| 2026-05-07 14:40 | 34.01936 | 130.06286 | 18008 ft | 368 kts | 321° |
| 2026-05-07 14:40 | 34.03941 | 130.04368 | 18007 ft | 368 kts | 321° |
| 2026-05-07 14:41 | 34.05951 | 130.02446 | 18004 ft | 368 kts | 321° |
| 2026-05-07 14:41 | 34.07958 | 130.00524 | 18010 ft | 368 kts | 321° |
| 2026-05-07 14:41 | 34.09961 | 129.98601 | 18006 ft | 368 kts | 321° |
| 2026-05-07 14:41 | 34.11966 | 129.96679 | 18013 ft | 384 kts | 321° |
| 2026-05-07 14:42 | 34.14135 | 129.94598 | 18002 ft | 409 kts | 321° |
| 2026-05-07 14:42 | 34.16373 | 129.92446 | 18012 ft | 412 kts | 321° |
| 2026-05-07 14:42 | 34.18612 | 129.90291 | 18009 ft | 412 kts | 321° |
| 2026-05-07 14:42 | 34.20827 | 129.88158 | 18042 ft | 395 kts | 321° |
| 2026-05-07 14:43 | 34.22884 | 129.86175 | 18566 ft | 362 kts | 321° |
| 2026-05-07 14:43 | 34.24757 | 129.84369 | 19686 ft | 327 kts | 321° |
| 2026-05-07 14:43 | 34.26452 | 129.82735 | 21293 ft | 300 kts | 321° |
| 2026-05-07 14:43 | 34.28033 | 129.81216 | 22989 ft | 280 kts | 321° |
| 2026-05-07 14:44 | 34.29500 | 129.79818 | 24405 ft | 267 kts | 321° |
| 2026-05-07 14:44 | 34.30958 | 129.78430 | 25315 ft | 268 kts | 321° |
| 2026-05-07 14:44 | 34.32429 | 129.77026 | 26021 ft | 271 kts | 321° |
| 2026-05-07 14:44 | 34.33922 | 129.75601 | 26671 ft | 276 kts | 321° |
| 2026-05-07 14:45 | 34.35436 | 129.74152 | 27299 ft | 280 kts | 321° |
| 2026-05-07 14:45 | 34.36970 | 129.72680 | 27925 ft | 283 kts | 321° |
| 2026-05-07 14:45 | 34.38527 | 129.71187 | 28510 ft | 287 kts | 321° |
| 2026-05-07 14:45 | 34.40104 | 129.69679 | 29099 ft | 291 kts | 321° |
| 2026-05-07 14:46 | 34.41704 | 129.68149 | 29670 ft | 295 kts | 321° |
| 2026-05-07 14:46 | 34.43322 | 129.66603 | 30225 ft | 298 kts | 321° |
| 2026-05-07 14:46 | 34.44939 | 129.65049 | 30761 ft | 302 kts | 321° |
| 2026-05-07 14:46 | 34.46593 | 129.63457 | 31279 ft | 306 kts | 321° |
| 2026-05-07 14:47 | 34.48271 | 129.61844 | 31801 ft | 309 kts | 321° |
| 2026-05-07 14:47 | 34.49964 | 129.60216 | 32304 ft | 313 kts | 321° |
| 2026-05-07 14:47 | 34.51677 | 129.58567 | 32797 ft | 316 kts | 321° |
| 2026-05-07 14:47 | 34.53408 | 129.56902 | 33283 ft | 320 kts | 321° |
| 2026-05-07 14:48 | 34.55162 | 129.55219 | 33755 ft | 323 kts | 321° |
| 2026-05-07 14:48 | 34.56956 | 129.53496 | 33965 ft | 337 kts | 321° |
| 2026-05-07 14:48 | 34.58839 | 129.51682 | 34005 ft | 355 kts | 321° |
| 2026-05-07 14:48 | 34.60820 | 129.49767 | 34003 ft | 374 kts | 321° |
| 2026-05-07 14:49 | 34.62906 | 129.47750 | 34006 ft | 392 kts | 321° |
| 2026-05-07 14:49 | 34.65081 | 129.45647 | 34007 ft | 409 kts | 321° |
| 2026-05-07 14:49 | 34.67320 | 129.43484 | 34006 ft | 423 kts | 321° |
| 2026-05-07 14:49 | 34.69661 | 129.41220 | 34008 ft | 437 kts | 321° |
| 2026-05-07 14:50 | 34.72076 | 129.38884 | 34004 ft | 448 kts | 321° |
| 2026-05-07 14:50 | 34.74498 | 129.36539 | 34012 ft | 447 kts | 321° |
| 2026-05-07 14:50 | 34.76961 | 129.34152 | 34009 ft | 458 kts | 321° |
| 2026-05-07 14:50 | 34.79473 | 129.31715 | 34009 ft | 466 kts | 321° |
| 2026-05-07 14:51 | 34.84598 | 129.26762 | 34009 ft | 473 kts | 321° |
| 2026-05-07 14:51 | 34.89732 | 129.21814 | 34008 ft | 474 kts | 321° |
| 2026-05-07 14:52 | 34.94892 | 129.16823 | 34001 ft | 474 kts | 321° |
| 2026-05-07 14:52 | 35.00046 | 129.11815 | 34009 ft | 474 kts | 321° |
| 2026-05-07 14:53 | 35.05198 | 129.06812 | 34010 ft | 473 kts | 321° |
| 2026-05-07 14:53 | 35.10351 | 129.01797 | 34012 ft | 474 kts | 321° |
| 2026-05-07 14:54 | 35.16024 | 128.97719 | 34012 ft | 474 kts | 334° |
| 2026-05-07 14:54 | 35.21927 | 128.94251 | 34011 ft | 474 kts | 334° |
| 2026-05-07 14:55 | 35.27883 | 128.90724 | 34002 ft | 477 kts | 334° |
| 2026-05-07 14:55 | 35.33845 | 128.87197 | 34012 ft | 476 kts | 334° |
| 2026-05-07 14:56 | 35.39802 | 128.83665 | 34016 ft | 474 kts | 334° |
| 2026-05-07 14:56 | 35.45744 | 128.80137 | 34013 ft | 474 kts | 334° |
| 2026-05-07 14:57 | 35.51653 | 128.76627 | 34012 ft | 474 kts | 334° |
| 2026-05-07 14:57 | 35.57600 | 128.73078 | 34013 ft | 476 kts | 334° |
| 2026-05-07 14:58 | 35.60571 | 128.71302 | 33662 ft | 473 kts | 334° |
| 2026-05-07 14:58 | 35.63533 | 128.69531 | 32544 ft | 473 kts | 334° |
| 2026-05-07 14:58 | 35.65494 | 128.68357 | 31624 ft | 474 kts | 334° |
| 2026-05-07 14:58 | 35.68460 | 128.66579 | 30153 ft | 475 kts | 334° |
| 2026-05-07 14:59 | 35.71434 | 128.64798 | 28549 ft | 477 kts | 334° |
| 2026-05-07 14:59 | 35.75388 | 128.62432 | 27001 ft | 471 kts | 334° |
| 2026-05-07 14:59 | 35.77360 | 128.61251 | 26630 ft | 463 kts | 334° |
| 2026-05-07 14:59 | 35.81125 | 128.58597 | 26252 ft | 481 kts | 323° |
| 2026-05-07 15:00 | 35.83678 | 128.55906 | 26030 ft | 482 kts | 316° |
| 2026-05-07 15:00 | 35.86091 | 128.53044 | 25995 ft | 481 kts | 316° |
| 2026-05-07 15:00 | 35.87690 | 128.51145 | 26011 ft | 482 kts | 316° |
| 2026-05-07 15:00 | 35.90100 | 128.48276 | 26009 ft | 482 kts | 316° |
| 2026-05-07 15:01 | 35.92510 | 128.45401 | 26009 ft | 482 kts | 316° |
| 2026-05-07 15:01 | 35.94922 | 128.42528 | 26009 ft | 482 kts | 316° |
| 2026-05-07 15:01 | 35.97332 | 128.39655 | 26008 ft | 482 kts | 316° |
| 2026-05-07 15:01 | 35.99744 | 128.36780 | 26010 ft | 482 kts | 316° |
| 2026-05-07 15:02 | 36.02156 | 128.33904 | 26010 ft | 483 kts | 316° |
| 2026-05-07 15:02 | 36.04571 | 128.31025 | 26010 ft | 483 kts | 316° |
| 2026-05-07 15:02 | 36.06989 | 128.28141 | 26009 ft | 483 kts | 316° |
| 2026-05-07 15:02 | 36.09651 | 128.25605 | 26009 ft | 485 kts | 329° |
| 2026-05-07 15:03 | 36.12737 | 128.23923 | 26012 ft | 487 kts | 341° |
| 2026-05-07 15:03 | 36.15949 | 128.22619 | 26009 ft | 489 kts | 342° |
| 2026-05-07 15:03 | 36.19189 | 128.21330 | 26009 ft | 489 kts | 342° |
| 2026-05-07 15:03 | 36.22433 | 128.20056 | 26009 ft | 490 kts | 342° |
| 2026-05-07 15:04 | 36.25688 | 128.18783 | 26010 ft | 490 kts | 342° |
| 2026-05-07 15:04 | 36.28939 | 128.17507 | 26010 ft | 491 kts | 342° |
| 2026-05-07 15:04 | 36.32154 | 128.16235 | 26010 ft | 491 kts | 342° |
| 2026-05-07 15:04 | 36.35403 | 128.14941 | 26009 ft | 491 kts | 342° |
| 2026-05-07 15:05 | 36.38661 | 128.13637 | 26008 ft | 491 kts | 342° |
| 2026-05-07 15:05 | 36.41912 | 128.12334 | 26009 ft | 491 kts | 342° |
| 2026-05-07 15:05 | 36.45164 | 128.11032 | 26010 ft | 491 kts | 342° |
| 2026-05-07 15:05 | 36.48416 | 128.09730 | 26009 ft | 491 kts | 342° |
| 2026-05-07 15:06 | 36.51664 | 128.08429 | 26008 ft | 491 kts | 342° |
| 2026-05-07 15:06 | 36.54923 | 128.07125 | 26008 ft | 491 kts | 342° |
| 2026-05-07 15:06 | 36.58177 | 128.05822 | 26009 ft | 491 kts | 342° |
| 2026-05-07 15:06 | 36.61391 | 128.04534 | 26010 ft | 492 kts | 342° |
| 2026-05-07 15:07 | 36.64645 | 128.03228 | 26008 ft | 492 kts | 342° |
| 2026-05-07 15:07 | 36.67898 | 128.01918 | 26008 ft | 492 kts | 342° |
| 2026-05-07 15:07 | 36.71153 | 128.00606 | 26009 ft | 492 kts | 342° |
| 2026-05-07 15:07 | 36.74411 | 127.99290 | 26011 ft | 493 kts | 342° |
| 2026-05-07 15:08 | 36.77667 | 127.97977 | 25777 ft | 489 kts | 342° |
| 2026-05-07 15:08 | 36.80836 | 127.96542 | 24703 ft | 481 kts | 335° |
| 2026-05-07 15:08 | 36.83708 | 127.94473 | 23188 ft | 477 kts | 323° |
| 2026-05-07 15:08 | 36.86132 | 127.91773 | 21909 ft | 471 kts | 312° |
| 2026-05-07 15:09 | 36.88069 | 127.88574 | 21548 ft | 448 kts | 302° |
| 2026-05-07 15:09 | 36.89656 | 127.85428 | 21409 ft | 425 kts | 303° |
| 2026-05-07 15:09 | 36.91328 | 127.82425 | 21281 ft | 403 kts | 306° |
| 2026-05-07 15:09 | 36.92957 | 127.79670 | 21122 ft | 386 kts | 307° |
| 2026-05-07 15:10 | 36.94545 | 127.77017 | 20696 ft | 378 kts | 306° |
| 2026-05-07 15:10 | 36.96098 | 127.74389 | 20126 ft | 374 kts | 306° |
| 2026-05-07 15:10 | 36.97603 | 127.71790 | 19556 ft | 371 kts | 305° |
| 2026-05-07 15:10 | 36.98902 | 127.69042 | 18983 ft | 368 kts | 292° |
| 2026-05-07 15:11 | 36.99823 | 127.66136 | 18413 ft | 365 kts | 291° |
| 2026-05-07 15:11 | 37.00746 | 127.63142 | 17842 ft | 362 kts | 291° |
| 2026-05-07 15:11 | 37.01645 | 127.60218 | 17280 ft | 359 kts | 291° |
| 2026-05-07 15:11 | 37.02538 | 127.57315 | 16751 ft | 355 kts | 291° |
| 2026-05-07 15:12 | 37.03424 | 127.54434 | 16208 ft | 352 kts | 291° |
| 2026-05-07 15:12 | 37.04300 | 127.51584 | 15676 ft | 350 kts | 291° |
| 2026-05-07 15:12 | 37.05171 | 127.48752 | 15166 ft | 348 kts | 291° |
| 2026-05-07 15:12 | 37.06033 | 127.45946 | 14989 ft | 348 kts | 291° |
| 2026-05-07 15:13 | 37.06900 | 127.43125 | 15004 ft | 348 kts | 291° |
| 2026-05-07 15:13 | 37.07760 | 127.40325 | 14963 ft | 347 kts | 291° |
| 2026-05-07 15:13 | 37.08625 | 127.37509 | 14541 ft | 343 kts | 291° |
| 2026-05-07 15:13 | 37.09491 | 127.34689 | 14002 ft | 341 kts | 291° |
| 2026-05-07 15:14 | 37.10316 | 127.32007 | 13473 ft | 338 kts | 291° |
| 2026-05-07 15:14 | 37.11160 | 127.29257 | 12936 ft | 335 kts | 291° |
| 2026-05-07 15:14 | 37.12008 | 127.26497 | 12380 ft | 333 kts | 291° |
| 2026-05-07 15:14 | 37.12821 | 127.23847 | 11843 ft | 330 kts | 291° |
| 2026-05-07 15:15 | 37.13650 | 127.21146 | 11289 ft | 328 kts | 291° |
| 2026-05-07 15:15 | 37.14467 | 127.18485 | 11056 ft | 327 kts | 291° |
| 2026-05-07 15:15 | 37.15283 | 127.15827 | 11035 ft | 328 kts | 291° |
| 2026-05-07 15:15 | 37.16101 | 127.13161 | 11049 ft | 328 kts | 291° |
| 2026-05-07 15:16 | 37.16918 | 127.10499 | 10761 ft | 325 kts | 291° |
| 2026-05-07 15:16 | 37.17724 | 127.07873 | 10312 ft | 318 kts | 291° |
| 2026-05-07 15:16 | 37.18495 | 127.05360 | 10185 ft | 302 kts | 291° |
| 2026-05-07 15:16 | 37.19231 | 127.02962 | 10028 ft | 289 kts | 291° |
| 2026-05-07 15:17 | 37.19951 | 127.00616 | 9676 ft | 285 kts | 291° |
| 2026-05-07 15:17 | 37.20658 | 126.98315 | 9249 ft | 283 kts | 291° |
| 2026-05-07 15:17 | 37.21364 | 126.96015 | 8811 ft | 281 kts | 291° |
| 2026-05-07 15:17 | 37.22066 | 126.93729 | 8377 ft | 279 kts | 291° |
| 2026-05-07 15:18 | 37.22750 | 126.91498 | 7937 ft | 277 kts | 291° |
| 2026-05-07 15:18 | 37.23442 | 126.89245 | 7475 ft | 276 kts | 291° |
| 2026-05-07 15:18 | 37.24127 | 126.87010 | 7099 ft | 273 kts | 291° |
| 2026-05-07 15:18 | 37.24804 | 126.84772 | 7032 ft | 275 kts | 288° |
| 2026-05-07 15:19 | 37.24997 | 126.82382 | 7041 ft | 273 kts | 261° |
| 2026-05-07 15:19 | 37.24512 | 126.80189 | 6961 ft | 257 kts | 251° |
| 2026-05-07 15:19 | 37.23949 | 126.78119 | 6837 ft | 243 kts | 251° |
| 2026-05-07 15:19 | 37.23405 | 126.76162 | 6708 ft | 231 kts | 251° |
| 2026-05-07 15:20 | 37.22893 | 126.74322 | 6594 ft | 220 kts | 251° |
| 2026-05-07 15:20 | 37.22395 | 126.72535 | 6455 ft | 210 kts | 251° |
| 2026-05-07 15:20 | 37.21923 | 126.70842 | 6343 ft | 201 kts | 251° |
| 2026-05-07 15:20 | 37.21469 | 126.69212 | 6161 ft | 196 kts | 251° |
| 2026-05-07 15:21 | 37.21030 | 126.67600 | 5895 ft | 195 kts | 255° |
| 2026-05-07 15:21 | 37.21063 | 126.65920 | 5545 ft | 197 kts | 294° |
| 2026-05-07 15:21 | 37.21907 | 126.64699 | 5340 ft | 191 kts | 332° |
| 2026-05-07 15:21 | 37.23197 | 126.64182 | 5078 ft | 190 kts | 348° |
| 2026-05-07 15:22 | 37.24519 | 126.63975 | 4724 ft | 195 kts | 4° |
| 2026-05-07 15:22 | 37.25868 | 126.64139 | 4479 ft | 193 kts | 355° |
| 2026-05-07 15:22 | 37.27154 | 126.63697 | 4272 ft | 188 kts | 333° |
| 2026-05-07 15:22 | 37.28128 | 126.62726 | 4176 ft | 175 kts | 301° |
| 2026-05-07 15:23 | 37.28706 | 126.61395 | 3966 ft | 174 kts | 308° |
| 2026-05-07 15:23 | 37.29672 | 126.60502 | 3791 ft | 174 kts | 328° |
| 2026-05-07 15:23 | 37.30705 | 126.59706 | 3710 ft | 174 kts | 327° |
| 2026-05-07 15:23 | 37.31707 | 126.58855 | 3637 ft | 174 kts | 324° |
| 2026-05-07 15:24 | 37.32695 | 126.57980 | 3640 ft | 174 kts | 324° |
| 2026-05-07 15:24 | 37.33663 | 126.57109 | 3643 ft | 172 kts | 323° |
| 2026-05-07 15:24 | 37.34563 | 126.56300 | 3678 ft | 147 kts | 324° |
| 2026-05-07 15:24 | 37.35350 | 126.55599 | 3643 ft | 132 kts | 323° |
| 2026-05-07 15:25 | 37.36134 | 126.54902 | 3636 ft | 152 kts | 324° |
| 2026-05-07 15:25 | 37.37081 | 126.54062 | 3615 ft | 173 kts | 324° |
| 2026-05-07 15:25 | 37.38064 | 126.53192 | 3416 ft | 173 kts | 324° |
| 2026-05-07 15:25 | 37.39060 | 126.52302 | 2926 ft | 178 kts | 324° |
| 2026-05-07 15:26 | 37.40076 | 126.51392 | 2493 ft | 177 kts | 324° |
| 2026-05-07 15:26 | 37.41053 | 126.50522 | 2104 ft | 167 kts | 324° |
| 2026-05-07 15:26 | 37.41974 | 126.49704 | 1773 ft | 158 kts | 324° |
| 2026-05-07 15:26 | 37.42853 | 126.48940 | 1480 ft | 149 kts | 324° |
| 2026-05-07 15:27 | 37.43670 | 126.48224 | 1249 ft | 137 kts | 324° |
| 2026-05-07 15:27 | 37.44451 | 126.47495 | 717 ft | 146 kts | 323° |
| 2026-05-07 15:27 | 37.45301 | 126.46776 | 257 ft | 146 kts | 326° |
| 2026-05-07 15:27 | 37.46104 | 126.46057 | 34 ft | 131 kts | 326° |
| 2026-05-07 15:28 | 37.46615 | 126.45601 | 32 ft | 46 kts | 324° |
| 2026-05-07 15:28 | 37.46831 | 126.45412 | 33 ft | 61 kts | 325° |
| 2026-05-07 15:28 | 37.47294 | 126.44983 | 34 ft | 99 kts | 320° |
| 2026-05-07 15:28 | 37.47459 | 126.44715 | 33 ft | 6 kts | 281° |
| 2026-05-07 15:29 | 37.47462 | 126.44644 | 33 ft | 0 kts | 257° |
| 2026-05-07 15:29 | 37.47461 | 126.44639 | 33 ft | 1 kts | 251° |
| 2026-05-07 15:29 | 37.47423 | 126.44631 | 33 ft | 10 kts | 173° |
| 2026-05-07 15:29 | 37.47406 | 126.44629 | 33 ft | 5 kts | 189° |
| 2026-05-07 15:30 | 37.47363 | 126.44596 | 31 ft | 8 kts | 232° |
| 2026-05-07 15:30 | 37.47319 | 126.44456 | 32 ft | 24 kts | 235° |
| 2026-05-07 15:30 | 37.47222 | 126.44388 | 32 ft | 1 kts | 173° |
| 2026-05-07 15:30 | 37.47216 | 126.44387 | 32 ft | 1 kts | 192° |
| 2026-05-07 15:31 | 37.47212 | 126.44335 | 32 ft | 6 kts | 319° |
| 2026-05-07 15:31 | 37.47271 | 126.44276 | 31 ft | 13 kts | 310° |
| 2026-05-07 15:31 | 37.47281 | 126.44252 | 32 ft | 0 kts | 295° |
| 2026-05-07 15:31 | 37.47284 | 126.44245 | 30 ft | 1 kts | 295° |
| 2026-05-07 15:32 | 37.47289 | 126.44231 | 32 ft | 2 kts | 295° |
| 2026-05-07 15:32 | 37.47296 | 126.44213 | 32 ft | 3 kts | 295° |
| 2026-05-07 15:32 | 37.47304 | 126.44191 | 32 ft | 3 kts | 295° |
| 2026-05-07 15:32 | 37.47313 | 126.44166 | 31 ft | 3 kts | 295° |
| 2026-05-07 15:33 | 37.47323 | 126.44139 | 32 ft | 4 kts | 295° |
| 2026-05-07 15:33 | 37.47334 | 126.44110 | 32 ft | 4 kts | 295° |
| 2026-05-07 15:33 | 37.47346 | 126.44079 | 31 ft | 4 kts | 295° |
| 2026-05-07 15:33 | 37.47352 | 126.44063 | 32 ft | 1 kts | 302° |
| 2026-05-07 15:34 | 37.47382 | 126.44035 | 32 ft | 15 kts | 339° |
| 2026-05-07 15:34 | 37.47532 | 126.43886 | 32 ft | 14 kts | 261° |
| 2026-05-07 15:34 | 37.47509 | 126.43854 | 32 ft | 0 kts | 221° |
| 2026-05-07 15:34 | 37.47504 | 126.43848 | 32 ft | 2 kts | 221° |
| 2026-05-07 15:35 | 37.47491 | 126.43826 | 32 ft | 2 kts | 192° |
| 2026-05-07 15:35 | 37.47473 | 126.43844 | 32 ft | 4 kts | 146° |